createdAt,value
2018-03-27T00:00:04.291Z,45.93
2018-03-27T00:02:31.785Z,43.73
2018-03-27T00:05:00.066Z,42.50
2018-03-27T00:07:28.326Z,43.70
2018-03-27T00:09:56.609Z,45.10
2018-03-27T00:12:24.869Z,43.60
2018-03-27T00:14:52.457Z,43.50
2018-03-27T00:17:20.037Z,43.57
2018-03-27T00:19:47.529Z,45.63
2018-03-27T00:22:15.038Z,45.33
2018-03-27T00:24:42.529Z,45.63
2018-03-27T00:27:09.560Z,46.30
2018-03-27T00:29:48.824Z,44.37
2018-03-27T00:32:28.226Z,42.70
2018-03-27T00:35:07.437Z,46.67
2018-03-27T00:37:46.969Z,44.97
2018-03-27T00:40:27.316Z,43.07
2018-03-27T00:42:56.532Z,40.23
2018-03-27T00:45:24.029Z,43.80
2018-03-27T00:47:51.523Z,43.17
2018-03-27T00:50:19.797Z,46.63
2018-03-27T00:52:48.053Z,43.67
2018-03-27T00:55:15.569Z,42.80
2018-03-27T00:57:43.087Z,43.20
2018-03-27T01:00:11.347Z,40.67
2018-03-27T01:02:38.937Z,40.50
2018-03-27T01:05:10.244Z,45.33
2018-03-27T01:07:37.833Z,40.33
2018-03-27T01:10:06.107Z,44.00
2018-03-27T01:12:34.367Z,41.57
2018-03-27T01:15:02.745Z,43.03
2018-03-27T01:17:31.007Z,48.07
2018-03-27T01:19:58.512Z,45.40
2018-03-27T01:22:26.036Z,43.53
2018-03-27T01:24:54.279Z,43.07
2018-03-27T01:27:21.778Z,44.37
2018-03-27T01:29:49.345Z,44.20
2018-03-27T01:32:16.889Z,44.20
2018-03-27T01:34:45.151Z,46.27
2018-03-27T01:37:13.414Z,41.97
2018-03-27T01:39:41.010Z,43.50
2018-03-27T01:42:08.499Z,47.30
2018-03-27T01:44:36.116Z,45.63
2018-03-27T01:47:04.373Z,44.00
2018-03-27T01:49:32.635Z,44.63
2018-03-27T01:52:00.319Z,43.87
2018-03-27T01:54:28.565Z,42.27
2018-03-27T01:56:56.069Z,45.27
2018-03-27T01:59:23.607Z,45.60
2018-03-27T02:01:51.873Z,45.50
2018-03-27T02:04:20.160Z,45.83
2018-03-27T02:06:48.454Z,44.10
2018-03-27T02:09:15.952Z,45.80
2018-03-27T02:11:49.249Z,44.00
2018-03-27T02:14:22.523Z,43.33
2018-03-27T02:16:55.751Z,42.90
2018-03-27T02:19:29.809Z,44.90
2018-03-27T02:21:56.803Z,46.97
2018-03-27T02:24:26.247Z,44.77
2018-03-27T02:26:53.793Z,44.73
2018-03-27T02:29:21.275Z,46.80
2018-03-27T02:31:48.769Z,47.43
2018-03-27T02:34:16.261Z,44.87
2018-03-27T02:36:43.760Z,46.70
2018-03-27T02:39:11.243Z,41.60
2018-03-27T02:41:38.755Z,45.00
2018-03-27T02:44:06.281Z,44.60
2018-03-27T02:46:34.545Z,45.83
2018-03-27T02:49:02.108Z,45.30
2018-03-27T02:51:30.370Z,44.13
2018-03-27T02:53:58.637Z,44.30
2018-03-27T02:56:26.126Z,46.07
2018-03-27T02:58:53.633Z,45.80
2018-03-27T03:01:21.145Z,45.30
2018-03-27T03:03:48.791Z,47.07
2018-03-27T03:06:16.345Z,45.63
2018-03-27T03:08:44.591Z,46.37
2018-03-27T03:11:12.094Z,46.20
2018-03-27T03:13:39.595Z,45.77
2018-03-27T03:16:07.114Z,48.47
2018-03-27T03:18:34.622Z,47.20
2018-03-27T03:21:02.196Z,48.60
2018-03-27T03:23:30.454Z,46.87
2018-03-27T03:25:57.965Z,46.93
2018-03-27T03:28:25.464Z,47.77
2018-03-27T03:30:52.943Z,47.23
2018-03-27T03:33:21.328Z,46.57
2018-03-27T03:35:48.831Z,50.03
2018-03-27T03:38:16.333Z,49.60
2018-03-27T03:40:44.611Z,47.70
2018-03-27T03:43:12.893Z,48.13
2018-03-27T03:45:40.450Z,49.67
2018-03-27T03:48:07.936Z,48.90
2018-03-27T03:50:35.491Z,49.50
2018-03-27T03:53:03.022Z,48.63
2018-03-27T03:55:30.528Z,48.53
2018-03-27T03:57:58.015Z,47.93
2018-03-27T04:00:26.326Z,48.40
2018-03-27T04:02:53.860Z,47.40
2018-03-27T04:05:22.231Z,48.67
2018-03-27T04:07:50.517Z,47.03
2018-03-27T04:10:18.011Z,48.40
2018-03-27T04:12:45.529Z,48.90
2018-03-27T04:15:13.060Z,48.37
2018-03-27T04:17:40.640Z,49.23
2018-03-27T04:20:08.945Z,44.67
2018-03-27T04:22:36.501Z,48.93
2018-03-27T04:25:04.027Z,51.13
2018-03-27T04:27:32.293Z,48.93
2018-03-27T04:30:00.548Z,48.97
2018-03-27T04:32:28.039Z,48.57
2018-03-27T04:34:56.304Z,50.50
2018-03-27T04:37:24.587Z,48.23
2018-03-27T04:39:52.847Z,46.40
2018-03-27T04:42:21.147Z,50.50
2018-03-27T04:44:48.647Z,47.97
2018-03-27T04:47:16.381Z,50.80
2018-03-27T04:49:43.874Z,49.90
2018-03-27T04:52:11.374Z,49.50
2018-03-27T04:54:38.929Z,48.47
2018-03-27T04:57:06.438Z,53.83
2018-03-27T04:59:33.941Z,52.50
2018-03-27T05:02:02.211Z,50.60
2018-03-27T05:04:30.602Z,48.03
2018-03-27T05:06:58.100Z,52.27
2018-03-27T05:09:25.609Z,52.40
2018-03-27T05:11:53.096Z,52.80
2018-03-27T05:14:20.578Z,51.90
2018-03-27T05:16:48.096Z,54.27
2018-03-27T05:19:15.654Z,53.77
2018-03-27T05:21:43.157Z,52.57
2018-03-27T05:24:10.641Z,63.90
2018-03-27T05:26:38.893Z,53.40
2018-03-27T05:29:06.383Z,51.77
2018-03-27T05:31:33.940Z,51.13
2018-03-27T05:34:01.502Z,51.30
2018-03-27T05:36:28.994Z,50.87
2018-03-27T05:38:56.476Z,57.17
2018-03-27T05:41:24.086Z,50.90
2018-03-27T05:43:51.581Z,52.00
2018-03-27T05:46:19.181Z,50.80
2018-03-27T05:48:46.737Z,52.37
2018-03-27T05:51:14.240Z,49.50
2018-03-27T05:53:41.740Z,49.23
2018-03-27T05:56:10.016Z,54.63
2018-03-27T05:58:38.292Z,52.93
2018-03-27T06:01:06.586Z,53.57
2018-03-27T06:03:34.069Z,51.37
2018-03-27T06:06:01.623Z,52.27
2018-03-27T06:08:29.153Z,54.33
2018-03-27T06:10:56.635Z,50.90
2018-03-27T06:13:24.141Z,53.80
2018-03-27T06:15:52.406Z,51.87
2018-03-27T06:18:19.936Z,56.07
2018-03-27T06:20:47.454Z,54.00
2018-03-27T06:23:15.002Z,58.00
2018-03-27T06:25:43.255Z,52.27
2018-03-27T06:28:10.736Z,52.10
2018-03-27T06:30:38.231Z,52.40
2018-03-27T06:33:05.727Z,53.10
2018-03-27T06:35:33.983Z,52.83
2018-03-27T06:38:01.498Z,55.67
2018-03-27T06:40:29.000Z,49.87
2018-03-27T06:42:56.483Z,56.87
2018-03-27T06:45:24.744Z,53.40
2018-03-27T06:47:53.005Z,53.53
2018-03-27T06:50:20.496Z,52.20
2018-03-27T06:52:48.788Z,51.90
2018-03-27T06:55:17.035Z,54.47
2018-03-27T06:57:45.329Z,52.60
2018-03-27T07:00:12.833Z,51.10
2018-03-27T07:02:40.330Z,53.30
2018-03-27T07:05:08.594Z,51.37
2018-03-27T07:07:36.925Z,55.67
2018-03-27T07:10:04.397Z,57.17
2018-03-27T07:12:31.897Z,54.87
2018-03-27T07:14:59.383Z,54.40
2018-03-27T07:17:26.877Z,53.40
2018-03-27T07:19:54.378Z,52.17
2018-03-27T07:22:21.901Z,52.43
2018-03-27T07:24:50.173Z,55.70
2018-03-27T07:27:17.760Z,56.77
2018-03-27T07:29:45.271Z,51.90
2018-03-27T07:32:12.773Z,55.90
2018-03-27T07:34:40.290Z,55.63
2018-03-27T07:37:07.888Z,54.33
2018-03-27T07:39:35.384Z,56.53
2018-03-27T07:42:02.874Z,54.60
2018-03-27T07:44:30.367Z,53.77
2018-03-27T07:46:57.874Z,57.13
2018-03-27T07:49:25.487Z,59.07
2018-03-27T07:51:53.086Z,54.07
2018-03-27T07:54:20.551Z,53.97
2018-03-27T07:56:48.040Z,51.80
2018-03-27T07:59:15.604Z,54.00
2018-03-27T08:01:43.097Z,56.70
2018-03-27T08:04:10.605Z,50.80
2018-03-27T08:06:38.873Z,53.80
2018-03-27T08:09:07.155Z,50.57
2018-03-27T08:11:35.426Z,51.10
2018-03-27T08:14:03.817Z,50.97
2018-03-27T08:16:31.373Z,52.00
2018-03-27T08:18:58.871Z,53.53
2018-03-27T08:21:26.346Z,49.97
2018-03-27T08:23:53.840Z,47.97
2018-03-27T08:26:21.348Z,51.20
2018-03-27T08:28:48.870Z,48.07
2018-03-27T08:31:16.355Z,47.03
2018-03-27T08:33:43.835Z,46.10
2018-03-27T08:36:11.397Z,48.50
2018-03-27T08:38:38.867Z,44.97
2018-03-27T08:41:07.114Z,44.27
2018-03-27T08:43:34.711Z,45.20
2018-03-27T08:46:02.970Z,46.97
2018-03-27T08:48:31.242Z,46.60
2018-03-27T08:50:59.555Z,42.33
2018-03-27T08:53:27.920Z,42.20
2018-03-27T08:55:55.465Z,41.83
2018-03-27T08:58:23.741Z,42.93
2018-03-27T09:00:51.996Z,42.30
2018-03-27T09:03:19.493Z,40.23
2018-03-27T09:05:46.999Z,40.23
2018-03-27T09:08:15.310Z,41.77
2018-03-27T09:10:42.811Z,42.70
2018-03-27T09:13:10.313Z,41.30
2018-03-27T09:15:38.718Z,43.27
2018-03-27T09:18:06.215Z,41.13
2018-03-27T09:20:33.698Z,41.37
2018-03-27T09:23:02.014Z,38.63
2018-03-27T09:25:29.495Z,37.40
2018-03-27T09:27:56.987Z,36.20
2018-03-27T09:30:25.238Z,38.13
2018-03-27T09:32:54.254Z,37.97
2018-03-27T09:35:22.524Z,36.13
2018-03-27T09:37:50.911Z,37.07
2018-03-27T09:40:19.339Z,38.30
2018-03-27T09:42:46.793Z,37.87
2018-03-27T09:45:14.314Z,36.80
2018-03-27T09:47:41.862Z,36.07
2018-03-27T09:50:10.145Z,36.37
2018-03-27T09:52:37.639Z,37.90
2018-03-27T09:55:05.133Z,38.80
2018-03-27T09:57:33.396Z,39.67
2018-03-27T10:00:01.019Z,37.87
2018-03-27T10:02:28.512Z,36.07
2018-03-27T10:04:56.080Z,34.40
2018-03-27T10:07:24.331Z,35.80
2018-03-27T10:09:51.829Z,33.33
2018-03-27T10:12:20.079Z,33.20
2018-03-27T10:14:47.662Z,32.20
2018-03-27T10:17:15.917Z,33.23
2018-03-27T10:19:44.213Z,32.50
2018-03-27T10:24:46.088Z,30.80
2018-03-27T10:27:13.640Z,30.27
2018-03-27T10:29:42.028Z,30.57
2018-03-27T10:32:09.521Z,28.13
2018-03-27T10:34:37.137Z,31.87
2018-03-27T10:37:05.390Z,32.27
2018-03-27T10:39:32.867Z,32.77
2018-03-27T10:42:00.371Z,31.47
2018-03-27T10:44:27.863Z,31.67
2018-03-27T10:46:56.157Z,31.30
2018-03-27T10:49:23.741Z,30.67
2018-03-27T10:51:51.272Z,27.40
2018-03-27T10:54:18.759Z,30.30
2018-03-27T10:56:46.288Z,29.37
2018-03-27T10:59:13.788Z,28.90
2018-03-27T11:01:41.304Z,26.80
2018-03-27T11:04:08.795Z,26.37
2018-03-27T11:06:36.291Z,26.37
2018-03-27T11:09:04.570Z,26.97
2018-03-27T11:11:32.865Z,24.80
2018-03-27T11:14:00.418Z,24.77
2018-03-27T11:16:27.977Z,25.90
2018-03-27T11:18:55.493Z,24.83
2018-03-27T11:21:22.994Z,25.73
2018-03-27T11:23:50.578Z,25.00
2018-03-27T11:26:18.216Z,25.50
2018-03-27T11:28:45.699Z,27.87
2018-03-27T11:31:13.206Z,23.80
2018-03-27T11:33:41.480Z,23.20
2018-03-27T11:36:09.747Z,23.63
2018-03-27T11:38:38.008Z,24.00
2018-03-27T11:41:05.614Z,24.37
2018-03-27T11:43:33.153Z,23.70
2018-03-27T11:46:01.508Z,23.60
2018-03-27T11:48:29.021Z,22.07
2018-03-27T11:50:56.520Z,23.50
2018-03-27T11:53:24.045Z,22.60
2018-03-27T11:55:51.531Z,23.00
2018-03-27T11:58:19.015Z,22.40
2018-03-27T12:00:47.397Z,21.33
2018-03-27T12:03:14.888Z,22.53
2018-03-27T12:05:42.380Z,22.00
2018-03-27T12:08:09.879Z,21.40
2018-03-27T12:10:37.426Z,21.17
2018-03-27T12:13:04.924Z,19.17
2018-03-27T12:15:32.450Z,19.30
2018-03-27T12:17:59.953Z,18.53
2018-03-27T12:20:27.439Z,19.07
2018-03-27T12:22:55.714Z,18.90
2018-03-27T12:25:24.099Z,18.97
2018-03-27T12:27:51.678Z,20.20
2018-03-27T12:30:19.177Z,20.03
2018-03-27T12:32:47.701Z,18.93
2018-03-27T12:35:15.225Z,19.40
2018-03-27T12:37:42.711Z,19.03
2018-03-27T12:40:10.195Z,17.67
2018-03-27T12:42:37.692Z,16.70
2018-03-27T12:45:05.282Z,17.70
2018-03-27T12:47:32.826Z,17.20
2018-03-27T12:50:01.089Z,19.30
2018-03-27T12:52:28.595Z,17.00
2018-03-27T12:54:56.103Z,19.67
2018-03-27T12:57:24.364Z,18.63
2018-03-27T12:59:51.980Z,18.17
2018-03-27T13:02:19.480Z,17.83
2018-03-27T13:04:46.971Z,21.83
2018-03-27T13:07:15.243Z,19.20
2018-03-27T13:09:43.525Z,17.67
2018-03-27T13:12:11.080Z,17.30
2018-03-27T13:14:39.457Z,18.47
2018-03-27T13:17:06.949Z,20.40
2018-03-27T13:19:34.452Z,20.20
2018-03-27T13:22:02.756Z,19.70
2018-03-27T13:24:30.257Z,20.90
2018-03-27T13:26:57.739Z,19.60
2018-03-27T13:29:26.024Z,17.13
2018-03-27T13:31:54.283Z,17.83
2018-03-27T13:34:22.585Z,17.07
2018-03-27T13:36:50.143Z,17.13
2018-03-27T13:39:17.641Z,18.43
2018-03-27T13:41:45.159Z,17.60
2018-03-27T13:44:12.649Z,19.13
2018-03-27T13:46:40.158Z,18.73
2018-03-27T13:49:08.442Z,19.03
2018-03-27T13:51:35.995Z,18.73
2018-03-27T13:54:04.373Z,20.27
2018-03-27T13:56:32.690Z,18.93
2018-03-27T13:59:00.191Z,20.67
2018-03-27T14:01:28.454Z,19.07
2018-03-27T14:03:56.350Z,20.27
2018-03-27T14:06:23.856Z,19.87
2018-03-27T14:08:51.410Z,19.77
2018-03-27T14:11:18.905Z,20.13
2018-03-27T14:13:47.291Z,19.37
2018-03-27T14:16:15.667Z,19.17
2018-03-27T14:18:43.932Z,17.53
2018-03-27T14:21:12.223Z,21.30
2018-03-27T14:23:39.818Z,18.33
2018-03-27T14:26:07.275Z,19.90
2018-03-27T14:28:34.780Z,19.50
2018-03-27T14:31:02.352Z,20.97
2018-03-27T14:33:29.907Z,20.57
2018-03-27T14:35:58.267Z,20.40
2018-03-27T14:38:26.534Z,19.17
2018-03-27T14:40:54.030Z,20.10
2018-03-27T14:43:21.603Z,18.80
2018-03-27T14:45:49.244Z,19.90
2018-03-27T14:48:16.796Z,19.73
2018-03-27T14:50:44.335Z,19.43
2018-03-27T14:53:12.611Z,19.30
2018-03-27T14:55:40.883Z,16.97
2018-03-27T14:58:09.145Z,19.63
2018-03-27T15:00:36.653Z,18.37
2018-03-27T15:03:04.151Z,19.00
2018-03-27T15:05:31.662Z,19.70
2018-03-27T15:07:59.201Z,17.90
2018-03-27T15:10:27.740Z,19.10
2018-03-27T15:12:55.235Z,18.10
2018-03-27T15:15:23.608Z,19.40
2018-03-27T15:17:52.010Z,17.43
2018-03-27T15:20:19.517Z,18.63
2018-03-27T15:22:47.036Z,17.60
2018-03-27T15:25:14.545Z,17.13
2018-03-27T15:27:42.795Z,19.30
2018-03-27T15:30:10.391Z,17.93
2018-03-27T15:32:38.652Z,18.40
2018-03-27T15:35:06.926Z,19.30
2018-03-27T15:37:35.307Z,18.30
2018-03-27T15:40:03.592Z,18.93
2018-03-27T15:42:31.847Z,18.63
2018-03-27T15:44:59.353Z,18.50
2018-03-27T15:47:26.904Z,19.03
2018-03-27T15:49:54.403Z,17.80
2018-03-27T15:52:22.005Z,16.77
2018-03-27T15:54:49.513Z,17.63
2018-03-27T15:57:17.014Z,17.23
2018-03-27T15:59:44.520Z,15.23
2018-03-27T16:02:12.043Z,16.90
2018-03-27T16:04:39.579Z,16.77
2018-03-27T16:07:07.830Z,17.60
2018-03-27T16:09:35.332Z,15.90
2018-03-27T16:12:02.826Z,15.80
2018-03-27T16:14:30.342Z,16.90
2018-03-27T16:16:57.839Z,16.30
2018-03-27T16:19:25.334Z,17.20
2018-03-27T16:21:53.610Z,16.30
2018-03-27T16:24:22.411Z,16.90
2018-03-27T16:26:49.913Z,16.13
2018-03-27T16:29:17.425Z,17.40
2018-03-27T16:31:44.967Z,17.07
2018-03-27T16:34:13.239Z,16.90
2018-03-27T16:36:41.471Z,16.20
2018-03-27T16:39:08.978Z,16.80
2018-03-27T16:41:36.531Z,19.53
2018-03-27T16:44:04.055Z,16.50
2018-03-27T16:46:31.595Z,16.40
2018-03-27T16:48:59.210Z,17.30
2018-03-27T16:51:26.770Z,17.17
2018-03-27T16:53:54.259Z,16.13
2018-03-27T16:56:21.781Z,16.37
2018-03-27T16:58:49.293Z,17.50
2018-03-27T17:01:16.782Z,16.17
2018-03-27T17:03:45.036Z,17.50
2018-03-27T17:06:12.534Z,16.07
2018-03-27T17:08:40.016Z,17.43
2018-03-27T17:11:07.528Z,16.30
2018-03-27T17:13:35.787Z,16.10
2018-03-27T17:16:04.132Z,16.73
2018-03-27T17:18:31.631Z,15.90
2018-03-27T17:20:59.910Z,17.20
2018-03-27T17:23:28.193Z,16.17
2018-03-27T17:25:55.744Z,15.60
2018-03-27T17:28:24.009Z,16.63
2018-03-27T17:30:52.286Z,17.53
2018-03-27T17:33:20.557Z,19.20
2018-03-27T17:35:48.872Z,19.50
2018-03-27T17:38:16.407Z,20.53
2018-03-27T17:40:44.660Z,20.53
2018-03-27T17:43:12.158Z,19.87
2018-03-27T17:45:39.639Z,20.30
2018-03-27T17:48:07.166Z,20.77
2018-03-27T17:50:34.728Z,20.70
2018-03-27T17:53:02.218Z,22.17
2018-03-27T17:55:29.718Z,20.00
2018-03-27T17:57:57.282Z,20.00
2018-03-27T18:00:24.819Z,22.97
2018-03-27T18:02:53.127Z,20.60
2018-03-27T18:05:20.665Z,23.60
2018-03-27T18:07:48.916Z,23.67
2018-03-27T18:10:16.421Z,23.73
2018-03-27T18:12:44.080Z,24.80
2018-03-27T18:15:11.563Z,24.93
2018-03-27T18:17:39.057Z,21.80
2018-03-27T18:20:07.334Z,22.60
2018-03-27T18:22:35.599Z,22.43
2018-03-27T18:25:03.167Z,23.07
2018-03-27T18:27:31.452Z,24.87
2018-03-27T18:29:58.967Z,23.57
2018-03-27T18:32:26.477Z,24.53
2018-03-27T18:34:53.980Z,25.07
2018-03-27T18:37:21.608Z,20.50
2018-03-27T18:39:49.071Z,22.97
2018-03-27T18:42:16.579Z,23.20
2018-03-27T18:44:44.850Z,23.20
2018-03-27T18:47:13.111Z,23.30
2018-03-27T18:49:41.380Z,23.40
2018-03-27T18:52:08.881Z,22.93
2018-03-27T18:54:36.375Z,22.13
2018-03-27T18:57:03.881Z,22.20
2018-03-27T18:59:32.135Z,24.63
2018-03-27T19:01:59.637Z,24.30
2018-03-27T19:04:27.298Z,22.77
2018-03-27T19:06:54.805Z,21.90
2018-03-27T19:09:22.392Z,23.57
2018-03-27T19:11:50.657Z,22.87
2018-03-27T19:14:18.946Z,22.80
2018-03-27T19:16:46.463Z,23.43
2018-03-27T19:19:13.958Z,22.37
2018-03-27T19:21:41.456Z,21.40
2018-03-27T19:24:08.945Z,21.43
2018-03-27T19:26:37.228Z,20.37
2018-03-27T19:29:05.644Z,23.10
2018-03-27T19:31:33.184Z,22.70
2018-03-27T19:34:00.678Z,22.60
2018-03-27T19:36:28.186Z,22.73
2018-03-27T19:38:55.692Z,23.07
2018-03-27T19:41:23.183Z,22.00
2018-03-27T19:43:51.440Z,22.70
2018-03-27T19:46:18.945Z,21.13
2018-03-27T19:48:47.083Z,25.20
2018-03-27T19:51:14.588Z,22.83
2018-03-27T19:53:42.084Z,21.97
2018-03-27T19:56:09.570Z,22.47
2018-03-27T19:58:37.832Z,22.07
2018-03-27T20:01:06.125Z,22.30
2018-03-27T20:03:33.702Z,23.20
2018-03-27T20:06:01.215Z,22.90
2018-03-27T20:08:29.508Z,22.00
2018-03-27T20:10:57.783Z,22.50
2018-03-27T20:13:26.043Z,24.10
2018-03-27T20:15:54.305Z,21.87
2018-03-27T20:18:21.801Z,23.10
2018-03-27T20:20:49.356Z,22.60
2018-03-27T20:23:16.847Z,24.80
2018-03-27T20:25:44.332Z,24.20
2018-03-27T20:28:11.863Z,24.83
2018-03-27T20:30:39.350Z,22.83
2018-03-27T20:33:06.858Z,23.07
2018-03-27T20:35:34.387Z,21.00
2018-03-27T20:38:02.671Z,22.17
2018-03-27T20:40:30.211Z,21.50
2018-03-27T20:42:58.492Z,22.33
2018-03-27T20:45:26.766Z,19.40
2018-03-27T20:47:55.066Z,20.53
2018-03-27T20:50:22.604Z,20.20
2018-03-27T20:52:50.873Z,19.83
2018-03-27T20:55:19.157Z,19.37
2018-03-27T20:57:46.722Z,21.53
2018-03-27T21:00:14.230Z,20.90
2018-03-27T21:02:41.750Z,18.70
2018-03-27T21:05:09.285Z,20.30
2018-03-27T21:07:36.796Z,19.60
2018-03-27T21:10:04.355Z,20.60
2018-03-27T21:12:31.856Z,20.00
2018-03-27T21:14:59.344Z,17.70
2018-03-27T21:17:26.868Z,19.70
2018-03-27T21:19:55.157Z,19.00
2018-03-27T21:22:22.663Z,18.67
2018-03-27T21:24:50.175Z,18.17
2018-03-27T21:27:17.707Z,19.07
2018-03-27T21:29:45.967Z,18.00
2018-03-27T21:32:13.544Z,18.93
2018-03-27T21:34:41.831Z,19.10
2018-03-27T21:37:09.367Z,16.77
2018-03-27T21:39:37.609Z,16.80
2018-03-27T21:42:05.106Z,17.30
2018-03-27T21:44:33.347Z,16.80
2018-03-27T21:47:00.941Z,16.73
2018-03-27T21:49:29.200Z,14.13
2018-03-27T21:51:57.476Z,15.43
2018-03-27T21:54:25.720Z,15.20
2018-03-27T21:56:53.204Z,15.23
2018-03-27T21:59:21.511Z,14.20
2018-03-27T22:01:49.016Z,13.60
2018-03-27T22:04:16.514Z,13.93
2018-03-27T22:06:44.059Z,14.07
2018-03-27T22:09:12.312Z,13.97
2018-03-27T22:11:39.794Z,13.77
2018-03-27T22:14:08.059Z,13.60
2018-03-27T22:16:36.320Z,14.60
2018-03-27T22:19:03.816Z,13.60
2018-03-27T22:21:31.316Z,13.00
2018-03-27T22:23:58.811Z,13.50
2018-03-27T22:26:27.172Z,15.10
2018-03-27T22:28:55.424Z,15.93
2018-03-27T22:31:22.977Z,14.27
2018-03-27T22:33:50.436Z,14.33
2018-03-27T22:36:17.920Z,13.70
2018-03-27T22:38:46.194Z,14.60
2018-03-27T22:41:14.493Z,12.80
2018-03-27T22:43:41.987Z,12.83
2018-03-27T22:46:09.484Z,12.70
2018-03-27T22:48:37.758Z,13.87
2018-03-27T22:51:06.031Z,13.37
2018-03-27T22:53:34.321Z,12.97
2018-03-27T22:56:02.577Z,14.17
2018-03-27T22:58:30.838Z,12.17
2018-03-27T23:00:59.135Z,13.23
2018-03-27T23:03:27.401Z,15.73
2018-03-27T23:05:55.662Z,14.10
2018-03-27T23:08:23.250Z,13.87
2018-03-27T23:10:50.813Z,13.80
2018-03-27T23:13:18.401Z,14.87
2018-03-27T23:15:45.909Z,12.90
2018-03-27T23:18:14.194Z,14.00
2018-03-27T23:20:42.578Z,14.70
2018-03-27T23:23:10.838Z,13.53
2018-03-27T23:25:39.109Z,13.87
2018-03-27T23:28:07.396Z,14.60
2018-03-27T23:30:35.642Z,15.33
2018-03-27T23:33:03.245Z,14.93
2018-03-27T23:35:30.779Z,13.90
2018-03-27T23:37:59.045Z,13.73
2018-03-27T23:40:27.326Z,12.60
2018-03-27T23:42:55.586Z,14.67
2018-03-27T23:45:23.125Z,13.27
2018-03-27T23:47:50.628Z,14.20
2018-03-27T23:50:18.122Z,14.10
2018-03-27T23:52:45.630Z,14.73
2018-03-27T23:55:13.875Z,14.70
2018-03-27T23:57:41.387Z,12.87
